Time;durP1;ratioP1;P1;durP2;ratioP2;P2;SDS_P1;SDS_P2;PMS_P1;PMS_P2;Temp;Humidity;BMP_temperature;BMP_pressure;BME280_temperature;BME280_humidity;BME280_pressure;Samples;Min_cycle;Max_cycle;Signal;HPM_P1;HPM_P2
2022/07/27 06:29:59;;;;;;;13.05;3.72;;;;;;;18.68;60.18;96591.47;2084330;28;20581;-67
2022/07/27 06:31:01;;;;;;;6.18;3.80;;;;;;;18.81;59.73;96596.63;2082742;28;20224;-67
2022/07/27 06:32:03;;;;;;;9.75;3.45;;;;;;;18.80;59.71;96587.00;2078553;28;20197;-66
2022/07/27 06:33:05;;;;;;;6.57;3.00;;;;;;;19.00;59.12;96588.09;2072385;28;20205;-67
2022/07/27 06:34:07;;;;;;;7.47;2.97;;;;;;;18.76;59.53;96583.75;2072438;28;20551;-67
2022/07/27 06:35:13;;;;;;;6.72;2.53;;;;;;;19.03;59.29;96595.81;2073807;28;20200;-67
2022/07/27 06:36:15;;;;;;;9.43;2.97;;;;;;;19.18;58.75;96593.72;2074125;28;20207;-67
2022/07/27 06:56:49;;;;;;;7.72;3.28;;;;;;;19.28;58.66;96604.41;2086451;28;20566;-67
2022/07/27 06:57:50;;;;;;;5.72;3.00;;;;;;;19.34;58.13;96593.34;2078631;28;20198;-69
2022/07/27 06:58:51;;;;;;;7.88;2.70;;;;;;;19.56;57.71;96602.19;2078773;28;20198;-68
2022/07/27 06:59:53;;;;;;;4.50;3.42;;;;;;;19.64;57.52;96602.41;2079395;28;20197;-69
2022/07/27 07:00:54;;;;;;;8.05;2.78;;;;;;;19.53;57.45;96595.34;2079334;28;20209;-69
2022/07/27 07:01:56;;;;;;;6.60;3.20;;;;;;;19.44;57.86;96598.75;2078608;28;20252;-69
2022/07/27 07:03:00;;;;;;;10.93;3.58;;;;;;;19.37;58.24;96608.97;2078997;28;20197;-68
2022/07/27 07:04:02;;;;;;;10.25;3.20;;;;;;;19.45;58.03;96612.81;2078206;28;20200;-68
2022/07/27 07:19:50;;;;;;;18.30;3.05;;;;;;;20.14;55.65;96601.00;2085314;28;21080;-66
2022/07/27 07:20:53;;;;;;;7.50;2.40;;;;;;;19.81;57.11;96606.31;2079973;28;20204;-67
2022/07/27 07:21:54;;;;;;;6.20;2.85;;;;;;;20.20;56.30;96598.66;2077574;28;20193;-66
2022/07/27 07:22:57;;;;;;;6.47;2.63;;;;;;;20.43;55.40;96600.31;2070652;28;20218;-67
2022/07/27 07:23:58;;;;;;;10.65;2.65;;;;;;;20.40;55.36;96601.44;2067757;28;20202;-67
2022/07/27 07:25:00;;;;;;;7.22;2.97;;;;;;;20.62;54.59;96607.53;2078481;28;20735;-66
2022/07/27 07:26:03;;;;;;;8.32;2.60;;;;;;;20.50;54.66;96604.97;2077938;28;20201;-67
2022/07/27 07:27:05;;;;;;;4.70;2.10;;;;;;;20.68;54.39;96599.06;2066486;28;20238;-67
2022/07/27 07:28:07;;;;;;;7.95;3.10;;;;;;;20.16;55.54;96607.00;2061555;28;20206;-67
2022/07/27 07:29:08;;;;;;;5.70;2.80;;;;;;;20.32;55.49;96598.59;2062588;28;20203;-67
2022/07/27 07:30:11;;;;;;;9.82;2.42;;;;;;;20.39;55.67;96600.59;2062748;28;20777;-66
2022/07/27 07:31:12;;;;;;;5.10;2.22;;;;;;;20.69;54.53;96582.16;2061996;28;20200;-66
2022/07/27 07:32:15;;;;;;;9.02;2.70;;;;;;;20.84;54.20;96601.25;2061550;28;20231;-66
2022/07/27 07:33:16;;;;;;;6.82;2.88;;;;;;;20.83;54.03;96586.31;2062191;28;20203;-64
2022/07/27 07:34:18;;;;;;;13.02;7.15;;;;;;;20.92;54.02;96603.25;2062674;28;20211;-64
2022/07/27 07:35:19;;;;;;;50.00;25.85;;;;;;;20.96;53.94;96594.88;2062616;28;20196;-64
2022/07/27 07:36:21;;;;;;;55.13;25.92;;;;;;;21.00;53.80;96584.81;2062488;28;20208;-62
2022/07/27 07:37:22;;;;;;;13.55;7.00;;;;;;;21.38;52.56;96596.50;2062169;28;20267;-63
2022/07/27 07:38:34;;;;;;;6.68;3.20;;;;;;;21.36;52.59;96595.81;2061704;28;20198;-65
2022/07/27 07:39:37;;;;;;;8.85;2.60;;;;;;;21.49;52.01;96600.88;2062435;28;20240;-65
2022/07/27 07:40:39;;;;;;;6.65;3.53;;;;;;;21.62;52.21;96595.31;2062408;28;20213;-66
2022/07/27 07:41:44;;;;;;;3.15;2.28;;;;;;;21.67;52.01;96601.06;2061673;28;20199;-65
2022/07/27 07:42:58;;;;;;;9.15;2.60;;;;;;;21.72;51.76;96598.00;2062420;28;20222;-65
2022/07/27 07:44:00;;;;;;;3.35;2.13;;;;;;;21.56;52.22;96599.38;2061913;28;20187;-66
2022/07/27 07:45:02;;;;;;;4.20;2.33;;;;;;;21.37;52.47;96594.84;2061859;28;20226;-65
2022/07/27 07:46:04;;;;;;;7.53;2.50;;;;;;;21.60;52.08;96600.78;2060870;28;20211;-65
2022/07/27 07:47:06;;;;;;;7.75;2.60;;;;;;;22.14;50.79;96597.69;2062009;28;20602;-65
2022/07/27 07:48:10;;;;;;;6.05;2.20;;;;;;;21.93;50.99;96608.47;2062396;28;20199;-65
2022/07/27 07:49:11;;;;;;;7.47;2.00;;;;;;;21.92;51.08;96596.19;2062506;28;20253;-65
2022/07/27 07:50:13;;;;;;;5.90;2.22;;;;;;;22.08;50.75;96596.44;2062435;28;20196;-65
2022/07/27 07:51:15;;;;;;;5.45;2.70;;;;;;;22.27;50.21;96592.06;2062416;28;20206;-66
2022/07/27 07:52:17;;;;;;;5.40;2.60;;;;;;;22.40;50.08;96597.09;2066536;28;20219;-66
2022/07/27 07:53:22;;;;;;;6.32;2.83;;;;;;;22.42;49.67;96603.13;2070555;28;20760;-65
2022/07/27 07:54:24;;;;;;;9.40;2.70;;;;;;;22.43;49.27;96594.16;2070200;28;20225;-66
2022/07/27 07:55:27;;;;;;;6.60;2.70;;;;;;;22.23;49.53;96591.50;2070623;28;20226;-65
2022/07/27 07:56:30;;;;;;;7.15;2.70;;;;;;;22.37;49.72;96597.41;2069974;28;20199;-65
2022/07/27 07:57:31;;;;;;;4.40;2.47;;;;;;;22.57;49.25;96598.19;2071272;28;20308;-65
2022/07/27 07:58:33;;;;;;;12.77;2.72;;;;;;;22.71;49.02;96592.38;2069906;28;20210;-65
2022/07/27 07:59:34;;;;;;;11.32;2.85;;;;;;;22.36;49.68;96577.91;2061234;28;20208;-65
2022/07/27 08:00:35;;;;;;;6.85;2.45;;;;;;;22.02;50.45;96592.50;2062375;28;20210;-65
2022/07/27 08:01:37;;;;;;;9.43;2.90;;;;;;;22.26;50.31;96598.34;2062423;28;20693;-66
2022/07/27 08:02:43;;;;;;;7.60;2.30;;;;;;;22.15;50.25;96589.56;2061510;28;20234;-65
2022/07/27 08:03:44;;;;;;;6.10;3.05;;;;;;;22.17;50.10;96589.44;2062040;28;20204;-65
2022/07/27 08:25:08;;;;;;;5.07;2.20;;;;;;;22.68;48.43;96613.97;2085034;28;20560;-71
2022/07/27 08:26:10;;;;;;;4.72;2.53;;;;;;;22.81;48.13;96614.47;2081129;28;20204;-70
2022/07/27 08:27:11;;;;;;;15.15;3.30;;;;;;;22.39;49.05;96616.72;2076018;28;20225;-68
2022/07/27 08:28:12;;;;;;;9.35;2.85;;;;;;;22.40;49.53;96613.06;2074059;28;20206;-68
2022/07/27 08:29:14;;;;;;;6.05;3.03;;;;;;;22.97;48.09;96610.38;2070509;28;20756;-68
2022/07/27 08:30:16;;;;;;;6.35;3.30;;;;;;;23.30;47.18;96621.44;2071800;28;20829;-68
2022/07/27 08:31:18;;;;;;;6.55;3.20;;;;;;;23.00;47.77;96616.22;2073304;28;20194;-68
2022/07/27 08:32:27;;;;;;;11.57;3.17;;;;;;;23.20;47.63;96621.50;2073390;28;20222;-68
2022/07/27 08:33:29;;;;;;;6.13;2.33;;;;;;;22.72;48.57;96612.69;2075366;28;20236;-68
2022/07/27 08:34:31;;;;;;;16.33;2.72;;;;;;;22.56;48.58;96615.13;2074694;28;20217;-68
2022/07/27 08:35:34;;;;;;;12.20;2.88;;;;;;;23.03;47.95;96619.59;2073305;28;20202;-68
2022/07/27 08:36:35;;;;;;;7.70;2.10;;;;;;;23.28;47.69;96623.41;2071555;28;20209;-68
2022/07/27 08:37:36;;;;;;;9.77;2.25;;;;;;;23.62;47.24;96614.78;2068286;28;20580;-68
2022/07/27 08:38:38;;;;;;;8.90;2.50;;;;;;;23.06;48.09;96605.97;2074657;28;20669;-68
2022/07/27 08:39:39;;;;;;;9.32;2.38;;;;;;;23.06;47.76;96606.81;2074699;28;20201;-68
2022/07/27 08:41:02;;;;;;;8.02;2.50;;;;;;;22.83;48.33;96622.34;2075246;28;20198;-68
2022/07/27 08:42:08;;;;;;;7.15;1.60;;;;;;;22.91;48.64;96610.97;2071917;28;20192;-68
2022/07/27 08:43:11;;;;;;;4.90;1.90;;;;;;;22.86;48.68;96607.91;2070748;28;20202;-68
2022/07/27 08:44:13;;;;;;;10.75;2.35;;;;;;;22.85;48.74;96614.19;2071670;28;20283;-68
2022/07/27 08:45:16;;;;;;;14.43;2.65;;;;;;;22.49;49.41;96623.69;2069793;28;20199;-68
2022/07/27 08:46:20;;;;;;;15.45;3.00;;;;;;;22.19;50.15;96627.34;2071299;28;20691;-68
2022/07/27 08:47:22;;;;;;;9.32;2.83;;;;;;;22.11;50.23;96609.44;2065092;28;20346;-68
2022/07/27 08:48:29;;;;;;;8.65;3.13;;;;;;;22.27;49.93;96616.84;2059524;28;20202;-69
2022/07/27 08:49:31;;;;;;;9.32;2.40;;;;;;;22.18;50.40;96621.19;2075540;28;20288;-68
2022/07/27 08:50:47;;;;;;;8.30;3.30;;;;;;;22.17;50.15;96618.69;2073173;28;20194;-68
2022/07/27 08:51:49;;;;;;;7.95;2.80;;;;;;;22.21;50.02;96619.22;2072512;28;20206;-68
2022/07/27 08:52:56;;;;;;;6.78;2.65;;;;;;;21.91;50.64;96602.47;2073808;28;20213;-68
2022/07/27 08:53:59;;;;;;;4.47;2.25;;;;;;;22.23;50.31;96625.25;2073419;28;20198;-68
2022/07/27 08:55:02;;;;;;;10.88;2.45;;;;;;;21.84;51.06;96626.13;2075084;28;20829;-68
2022/07/27 08:56:03;;;;;;;6.53;3.00;;;;;;;21.77;51.33;96627.63;2072888;28;20209;-68
2022/07/27 08:57:07;;;;;;;9.18;2.90;;;;;;;21.86;50.71;96626.78;2072666;28;20249;-68
2022/07/27 08:58:11;;;;;;;5.85;3.05;;;;;;;21.49;51.60;96622.13;2074262;28;20214;-68
2022/07/27 08:59:12;;;;;;;10.57;3.00;;;;;;;21.59;51.53;96620.34;2073309;28;20206;-68
2022/07/27 09:00:15;;;;;;;8.48;2.85;;;;;;;22.38;49.70;96617.69;2075752;28;20194;-68
2022/07/27 09:01:16;;;;;;;9.85;3.30;;;;;;;22.15;49.68;96624.13;2075998;28;20198;-68
2022/07/27 09:02:20;;;;;;;6.25;3.08;;;;;;;22.50;48.93;96622.69;2074706;28;20219;-68
2022/07/27 09:03:22;;;;;;;6.70;2.70;;;;;;;22.78;48.05;96619.28;2071341;28;20216;-68
2022/07/27 09:04:25;;;;;;;7.00;2.95;;;;;;;23.04;48.45;96623.94;2071439;28;20202;-68
2022/07/27 09:05:26;;;;;;;9.43;2.63;;;;;;;23.50;47.16;96630.13;2074232;28;20201;-69
2022/07/27 09:06:40;;;;;;;7.03;2.38;;;;;;;22.62;48.37;96628.69;2072083;28;20252;-68
2022/07/27 09:07:41;;;;;;;9.52;2.65;;;;;;;23.36;47.02;96625.34;2071518;28;20248;-63
2022/07/27 09:08:57;;;;;;;17.63;9.38;;;;;;;23.48;46.69;96627.63;2070559;28;20614;-64
2022/07/27 09:09:58;;;;;;;32.67;17.25;;;;;;;24.22;45.48;96624.84;2071618;28;20848;-65
2022/07/27 09:11:02;;;;;;;91.40;50.53;;;;;;;24.60;44.38;96625.44;2071115;28;20532;-65
2022/07/27 09:12:08;;;;;;;9.23;3.97;;;;;;;23.84;45.44;96624.16;2071923;28;20537;-66
2022/07/27 09:13:23;;;;;;;7.25;3.05;;;;;;;24.22;44.96;96622.19;2072861;28;20558;-65
2022/07/27 09:14:30;;;;;;;8.90;2.67;;;;;;;24.94;43.06;96623.84;2072865;28;20202;-66
2022/07/27 09:15:32;;;;;;;8.60;2.45;;;;;;;25.22;42.71;96619.13;2073495;28;20274;-66
2022/07/27 09:16:35;;;;;;;5.35;2.60;;;;;;;24.35;44.14;96605.75;2074143;28;20202;-66
2022/07/27 09:17:57;;;;;;;7.30;2.50;;;;;;;24.83;43.55;96614.28;2072834;28;20231;-66
2022/07/27 09:19:08;;;;;;;8.10;2.40;;;;;;;25.38;42.51;96617.53;2076473;28;20194;-66
2022/07/27 09:20:15;;;;;;;7.30;2.55;;;;;;;24.60;44.01;96616.63;2075331;28;20200;-66
2022/07/27 09:21:20;;;;;;;8.98;2.28;;;;;;;25.32;42.80;96618.16;2071161;28;20291;-66
2022/07/27 09:22:37;;;;;;;4.82;2.53;;;;;;;25.46;42.38;96614.91;2072489;28;20258;-67
2022/07/27 09:23:41;;;;;;;10.23;2.47;;;;;;;25.70;42.03;96613.25;2075685;28;20720;-66
2022/07/27 09:25:01;;;;;;;5.30;2.60;;;;;;;24.83;43.26;96614.28;2074218;28;20626;-66
2022/07/27 09:26:28;;;;;;;3.53;2.30;;;;;;;24.56;43.90;96617.94;2072850;28;20208;-67
2022/07/27 09:27:34;;;;;;;5.38;2.15;;;;;;;24.96;42.60;96613.00;2074954;28;20228;-66
2022/07/27 09:28:36;;;;;;;5.72;2.47;;;;;;;24.97;42.41;96620.03;2070969;28;20211;-66
2022/07/27 09:29:37;;;;;;;5.88;2.80;;;;;;;24.88;42.64;96611.97;2072812;28;20204;-66
2022/07/27 09:30:42;;;;;;;4.40;2.72;;;;;;;25.48;41.76;96617.41;2074082;28;20514;-66
2022/07/27 09:31:50;;;;;;;5.50;2.67;;;;;;;25.50;41.44;96620.75;2073629;28;20289;-66
2022/07/27 09:32:52;;;;;;;5.70;3.10;;;;;;;24.79;41.94;96612.94;2073577;28;20218;-67
2022/07/27 09:33:55;;;;;;;6.28;2.78;;;;;;;25.06;42.13;96603.84;2073734;28;20213;-66
2022/07/27 09:34:57;;;;;;;6.25;2.70;;;;;;;25.07;42.78;96612.72;2075322;28;20780;-63
2022/07/27 09:35:59;;;;;;;5.00;2.30;;;;;;;25.79;41.47;96614.97;2065198;28;20198;-67
2022/07/27 09:37:02;;;;;;;5.78;2.33;;;;;;;26.23;40.59;96616.50;2066416;28;20288;-67
2022/07/27 09:38:19;;;;;;;9.48;2.90;;;;;;;26.28;39.79;96611.50;2068356;28;20204;-68
2022/07/27 09:39:23;;;;;;;5.57;2.33;;;;;;;25.78;40.78;96617.81;2069664;28;20206;-67
2022/07/27 09:40:25;;;;;;;16.38;2.47;;;;;;;25.46;41.19;96619.38;2064100;28;20209;-67
2022/07/27 09:41:36;;;;;;;4.35;2.40;;;;;;;25.63;40.60;96612.28;2067552;28;20206;-68
2022/07/27 09:42:39;;;;;;;5.45;2.53;;;;;;;25.77;40.25;96610.78;2060260;28;20309;-67
2022/07/27 09:44:01;;;;;;;4.65;2.08;;;;;;;26.17;40.00;96619.84;2064641;28;20203;-67
2022/07/27 09:45:31;;;;;;;4.65;2.35;;;;;;;26.64;38.56;96621.84;2067168;28;20226;-67
2022/07/27 09:46:37;;;;;;;6.75;2.40;;;;;;;26.93;38.05;96616.94;2062329;28;20221;-68
2022/07/27 09:47:39;;;;;;;6.05;2.28;;;;;;;27.30;37.47;96618.13;2068085;28;20226;-68
2022/07/27 09:48:41;;;;;;;6.40;2.30;;;;;;;26.68;38.08;96614.31;2068693;28;20194;-67
2022/07/27 09:49:42;;;;;;;7.95;2.40;;;;;;;26.50;38.30;96611.81;2067042;28;20206;-67
2022/07/27 09:50:58;;;;;;;4.68;2.40;;;;;;;26.22;38.92;96618.38;2067949;28;20198;-68
2022/07/27 09:52:05;;;;;;;3.97;1.77;;;;;;;26.70;38.33;96599.75;2066478;28;20333;-67
2022/07/27 09:53:21;;;;;;;8.00;2.40;;;;;;;26.94;38.53;96615.94;2066845;28;20718;-67
2022/07/27 09:54:45;;;;;;;9.75;2.00;;;;;;;26.22;39.31;96612.16;2065443;28;20206;-68
2022/07/27 09:55:58;;;;;;;8.75;2.80;;;;;;;25.03;41.33;96603.38;2065339;28;20195;-68
2022/07/27 09:57:01;;;;;;;4.80;2.20;;;;;;;25.86;40.03;96610.63;2066209;28;20787;-68
2022/07/27 09:58:03;;;;;;;5.07;2.65;;;;;;;26.46;38.84;96614.00;2069096;28;20321;-67
2022/07/27 09:59:04;;;;;;;3.97;2.30;;;;;;;26.50;38.97;96611.81;2067756;28;20209;-67
2022/07/27 10:00:12;;;;;;;3.38;1.95;;;;;;;26.91;38.34;96610.94;2066839;28;20199;-68
2022/07/27 10:01:28;;;;;;;5.93;2.53;;;;;;;27.54;37.60;96620.72;2061592;28;20893;-67
2022/07/27 10:02:30;;;;;;;6.38;2.15;;;;;;;26.89;37.71;96611.09;2068632;28;20701;-68
2022/07/27 10:03:32;;;;;;;5.97;2.47;;;;;;;26.09;39.68;96615.34;2067097;28;20207;-68
2022/07/27 10:04:33;;;;;;;2.40;1.60;;;;;;;26.54;39.39;96611.31;2075680;28;20214;-68
2022/07/27 10:05:35;;;;;;;14.25;2.42;;;;;;;26.97;38.17;96612.91;2075998;28;20267;-71
2022/07/27 10:06:37;;;;;;;7.40;2.22;;;;;;;27.13;38.08;96612.00;2063710;28;20300;-71
2022/07/27 10:07:58;;;;;;;3.10;2.10;;;;;;;27.09;37.72;96613.38;2070520;28;20225;-72
2022/07/27 10:09:00;;;;;;;4.75;1.92;;;;;;;27.64;37.39;96614.28;2061095;28;20202;-72
2022/07/27 10:10:03;;;;;;;5.90;2.20;;;;;;;27.84;37.42;96618.19;2070554;28;20205;-71
2022/07/27 10:11:11;;;;;;;3.45;1.60;;;;;;;27.58;37.71;96612.31;2071466;28;20702;-71
2022/07/27 10:12:12;;;;;;;5.63;2.15;;;;;;;27.33;37.91;96613.25;2064522;28;20226;-72
2022/07/27 10:13:14;;;;;;;6.13;1.70;;;;;;;26.92;38.53;96615.25;2064695;28;20862;-72
2022/07/27 10:14:16;;;;;;;7.07;2.00;;;;;;;27.36;37.89;96615.59;2070677;28;20194;-71
2022/07/27 10:15:17;;;;;;;15.77;2.20;;;;;;;27.11;37.10;96617.56;2068240;28;20638;-71
2022/07/27 10:16:24;;;;;;;3.35;1.80;;;;;;;26.80;37.80;96614.81;2065534;28;20195;-71
2022/07/27 10:17:27;;;;;;;7.30;2.05;;;;;;;27.34;37.48;96616.78;2066001;28;21060;-71
2022/07/27 10:18:52;;;;;;;15.57;2.50;;;;;;;28.29;35.83;96609.50;2068408;28;20273;-71
2022/07/27 10:19:57;;;;;;;5.20;1.48;;;;;;;28.67;34.94;96609.50;2070465;28;20199;-71
2022/07/27 10:21:06;;;;;;;6.05;1.83;;;;;;;28.22;34.77;96613.94;2068871;28;20203;-71
2022/07/27 10:22:07;;;;;;;2.90;1.60;;;;;;;28.64;33.77;96610.66;2067481;28;20229;-71
2022/07/27 10:23:24;;;;;;;3.83;1.70;;;;;;;29.17;33.16;96607.09;2070909;28;20201;-71
2022/07/27 10:24:35;;;;;;;3.03;1.38;;;;;;;29.17;32.84;96605.22;2069355;28;20433;-71
2022/07/27 10:25:36;;;;;;;2.60;1.50;;;;;;;29.56;32.25;96608.66;2066457;28;20262;-71
2022/07/27 10:26:40;;;;;;;6.53;1.45;;;;;;;29.21;33.00;96607.56;2068836;28;20203;-71
2022/07/27 10:27:46;;;;;;;4.13;1.70;;;;;;;28.78;32.83;96609.03;2065571;28;20444;-71
2022/07/27 10:28:55;;;;;;;5.80;1.38;;;;;;;25.45;37.94;96604.38;2058643;28;20200;-70
2022/07/27 10:29:57;;;;;;;45.95;28.27;;;;;;;26.21;37.23;96610.50;2060674;28;20210;-72
2022/07/27 10:31:16;;;;;;;9.00;3.20;;;;;;;26.89;36.44;96616.44;2070837;28;20198;-68
2022/07/27 10:32:31;;;;;;;16.27;9.27;;;;;;;26.74;35.86;96602.94;2067929;28;20244;-66
2022/07/27 10:33:45;;;;;;;6.68;3.78;;;;;;;26.54;36.68;96605.13;2068877;28;20601;-69
2022/07/27 10:34:47;;;;;;;2.15;1.30;;;;;;;25.48;37.48;96609.38;2065960;28;20210;-69
2022/07/27 10:35:48;;;;;;;2.78;1.40;;;;;;;25.43;37.76;96615.22;2066200;28;20231;-70
2022/07/27 10:36:52;;;;;;;3.45;1.30;;;;;;;25.52;37.64;96608.06;2063095;28;20199;-69
2022/07/27 10:38:43;;;;;;;9.70;1.58;;;;;;;25.64;37.85;96605.94;2071063;28;20206;-69
2022/07/27 10:39:50;;;;;;;4.30;1.40;;;;;;;25.91;37.87;96610.97;2059048;28;20214;-70
2022/07/27 10:41:24;;;;;;;6.50;1.77;;;;;;;25.88;37.80;96611.28;2068806;28;20234;-69
2022/07/27 10:42:29;;;;;;;2.65;1.52;;;;;;;25.80;37.58;96608.63;2065643;28;20227;-69
2022/07/27 10:43:32;;;;;;;2.60;1.15;;;;;;;25.62;36.98;96615.94;2066652;28;20263;-70
2022/07/27 10:44:33;;;;;;;2.95;1.35;;;;;;;25.58;37.97;96608.25;2066881;28;20199;-70
2022/07/27 10:45:44;;;;;;;1.80;1.08;;;;;;;25.81;37.78;96602.25;2068483;28;20838;-70
2022/07/27 10:47:03;;;;;;;6.20;1.58;;;;;;;25.64;38.13;96603.25;2065702;28;20233;-69
2022/07/27 10:48:04;;;;;;;3.10;1.60;;;;;;;26.10;37.48;96597.47;2064928;28;20652;-69
2022/07/27 10:49:20;;;;;;;2.03;1.33;;;;;;;26.21;36.91;96586.44;2065982;28;20860;-69
2022/07/27 10:50:26;;;;;;;8.18;1.50;;;;;;;26.31;37.36;96605.81;2069384;28;20225;-70
2022/07/27 10:51:34;;;;;;;2.80;1.45;;;;;;;26.92;36.44;96613.44;2067693;28;20210;-69
2022/07/27 10:52:44;;;;;;;6.50;1.35;;;;;;;26.85;36.72;96609.75;2068596;28;20234;-69
2022/07/27 10:53:49;;;;;;;3.20;1.48;;;;;;;26.92;36.10;96610.75;2070105;28;20655;-69
2022/07/27 10:55:29;;;;;;;1.85;1.33;;;;;;;27.22;35.83;96616.31;2067065;28;20235;-70
2022/07/27 10:56:45;;;;;;;2.78;1.48;;;;;;;26.78;36.18;96612.31;2066232;28;20697;-69
2022/07/27 10:57:46;;;;;;;3.08;1.35;;;;;;;26.15;37.15;96614.69;2069266;28;20218;-70
2022/07/27 10:58:49;;;;;;;2.15;1.33;;;;;;;27.32;35.31;96608.06;2068423;28;20226;-70
2022/07/27 10:59:51;;;;;;;5.43;1.25;;;;;;;27.58;35.04;96610.50;2067164;28;20217;-70
2022/07/27 11:01:13;;;;;;;4.70;1.90;;;;;;;27.14;35.38;96600.28;2066982;28;20204;-69
2022/07/27 11:02:17;;;;;;;3.50;1.60;;;;;;;27.18;34.72;96610.47;2067743;28;20924;-70
2022/07/27 11:03:20;;;;;;;7.85;1.60;;;;;;;26.16;36.99;96602.97;2066278;28;20195;-69
2022/07/27 11:04:22;;;;;;;1.77;1.27;;;;;;;26.92;35.05;96594.69;2067472;28;20215;-70
2022/07/27 11:05:24;;;;;;;5.05;1.50;;;;;;;25.91;36.72;96602.97;2068710;28;20286;-69
2022/07/27 11:06:45;;;;;;;6.78;1.40;;;;;;;27.35;35.02;96583.59;2067838;28;20198;-69
2022/07/27 11:08:07;;;;;;;4.65;1.65;;;;;;;28.01;33.90;96607.34;2067935;28;20309;-70
2022/07/27 11:09:39;;;;;;;2.13;1.30;;;;;;;26.67;35.61;96610.78;2067206;28;20242;-70
2022/07/27 11:11:02;;;;;;;2.75;1.35;;;;;;;26.63;35.27;96608.63;2068793;28;20210;-68
2022/07/27 11:12:04;;;;;;;6.70;1.67;;;;;;;26.78;35.35;96608.78;2067592;28;20207;-69
2022/07/27 11:13:06;;;;;;;9.13;1.63;;;;;;;26.94;35.44;96606.03;2065269;28;20777;-68
2022/07/27 11:14:10;;;;;;;2.03;1.23;;;;;;;27.59;34.39;96606.81;2075275;28;20197;-69
2022/07/27 11:15:13;;;;;;;4.53;1.30;;;;;;;27.52;34.44;96606.66;2073635;28;20206;-69
2022/07/27 11:16:15;;;;;;;3.22;1.40;;;;;;;27.54;34.18;96593.91;2069344;28;20646;-69
2022/07/27 11:17:26;;;;;;;3.70;1.10;;;;;;;28.21;34.00;96601.53;2066785;28;20230;-67
2022/07/27 11:18:54;;;;;;;3.13;1.55;;;;;;;29.17;32.74;96586.41;2069099;28;20601;-67
2022/07/27 11:19:58;;;;;;;2.35;1.50;;;;;;;29.11;32.09;96599.78;2063382;28;20202;-67
2022/07/27 11:21:16;;;;;;;1.50;0.90;;;;;;;28.38;33.29;96600.38;2063009;28;20203;-67
2022/07/27 11:22:39;;;;;;;8.68;1.52;;;;;;;28.26;33.40;96591.91;2064653;28;20222;-67
2022/07/27 11:24:15;;;;;;;5.18;1.25;;;;;;;26.93;35.24;96590.16;2066151;28;20203;-67
2022/07/27 11:25:17;;;;;;;3.63;1.50;;;;;;;27.55;34.90;96600.09;2067200;28;20206;-67
2022/07/27 11:26:21;;;;;;;4.72;1.45;;;;;;;27.28;35.52;96593.38;2066110;28;20207;-67
2022/07/27 11:27:22;;;;;;;8.88;2.45;;;;;;;26.83;36.62;96601.06;2066933;28;20222;-66
2022/07/27 11:28:30;;;;;;;5.05;1.40;;;;;;;27.13;36.21;96595.94;2068572;28;20756;-67
2022/07/27 11:29:35;;;;;;;2.10;1.23;;;;;;;27.43;35.75;96596.19;2069256;28;20585;-66
2022/07/27 11:30:44;;;;;;;2.63;1.10;;;;;;;27.54;35.44;96593.91;2066453;28;20203;-68
2022/07/27 11:31:49;;;;;;;4.45;1.33;;;;;;;27.36;36.00;96590.63;2068408;28;20678;-67
2022/07/27 11:33:03;;;;;;;4.82;1.13;;;;;;;26.98;36.23;96595.81;2068217;28;20207;-67
2022/07/27 11:34:05;;;;;;;3.85;1.33;;;;;;;26.66;37.06;96594.88;2064877;28;20195;-67
2022/07/27 11:35:13;;;;;;;2.30;1.00;;;;;;;27.54;35.53;96601.09;2068137;28;20214;-67
2022/07/27 11:36:21;;;;;;;10.18;5.28;;;;;;;28.36;34.05;96586.28;2067987;28;20187;-66
2022/07/27 11:37:23;;;;;;;6.47;3.35;;;;;;;28.66;33.68;96583.66;2066584;28;20309;-65
2022/07/27 11:38:25;;;;;;;7.55;5.50;;;;;;;28.38;34.22;96591.47;2065240;28;20206;-66
2022/07/27 11:39:28;;;;;;;7.00;2.80;;;;;;;27.40;35.26;96588.47;2065956;28;20286;-65
2022/07/27 11:40:52;;;;;;;2.20;1.17;;;;;;;27.95;34.97;96594.66;2069327;28;20209;-65
2022/07/27 11:42:07;;;;;;;2.63;1.30;;;;;;;27.20;35.65;96589.69;2063660;28;20411;-67
2022/07/27 11:43:29;;;;;;;1.90;1.00;;;;;;;27.68;35.16;96589.63;2069742;28;20202;-67
2022/07/27 12:09:53;;;;;;;2.22;1.50;;;;;;;26.60;35.91;96576.81;2083300;28;20912;-66
2022/07/27 12:11:01;;;;;;;4.18;1.88;;;;;;;27.28;34.65;96578.09;2078836;28;20211;-66
2022/07/27 12:12:13;;;;;;;2.72;1.60;;;;;;;27.64;34.37;96576.75;2075965;28;20202;-66
2022/07/27 12:13:17;;;;;;;2.60;1.30;;;;;;;26.94;34.58;96575.75;2069937;28;20205;-66
2022/07/27 12:14:39;;;;;;;2.47;1.10;;;;;;;26.77;35.14;96577.66;2072224;28;20204;-66
2022/07/27 12:15:40;;;;;;;3.50;1.33;;;;;;;26.82;35.17;96570.78;2070456;28;20697;-66
2022/07/27 12:16:47;;;;;;;3.83;1.10;;;;;;;27.66;34.40;96577.41;2069903;28;20204;-66
2022/07/27 12:17:56;;;;;;;4.40;1.23;;;;;;;27.15;34.35;96580.53;2069378;28;20193;-66
2022/07/27 12:18:57;;;;;;;2.40;1.02;;;;;;;26.94;34.64;96576.56;2069782;28;20195;-67
2022/07/27 12:20:03;;;;;;;5.88;1.40;;;;;;;27.21;34.25;96567.25;2070510;28;20195;-66
2022/07/27 12:21:18;;;;;;;6.47;1.20;;;;;;;26.80;35.33;96572.78;2070381;28;20206;-66
2022/07/27 12:22:24;;;;;;;3.75;1.70;;;;;;;26.79;34.89;96579.16;2070062;28;20217;-66
2022/07/27 12:23:28;;;;;;;4.40;1.40;;;;;;;26.91;35.09;96573.44;2070504;28;20203;-66
2022/07/27 12:24:39;;;;;;;4.25;1.70;;;;;;;27.36;34.50;96588.81;2070734;28;20637;-66
2022/07/27 12:25:40;;;;;;;3.95;1.38;;;;;;;26.55;35.57;96582.69;2069533;28;20573;-66
2022/07/27 12:26:42;;;;;;;4.28;1.55;;;;;;;26.19;36.46;96578.56;2070593;28;20228;-66
2022/07/27 12:28:01;;;;;;;4.10;1.75;;;;;;;26.51;35.64;96587.56;2069871;28;20225;-66
2022/07/27 12:29:08;;;;;;;5.20;1.52;;;;;;;26.77;35.62;96581.16;2070099;28;20198;-66
2022/07/27 12:30:12;;;;;;;9.20;1.85;;;;;;;26.65;35.52;96575.31;2069927;28;20211;-66
2022/07/27 12:31:17;;;;;;;3.35;1.30;;;;;;;26.68;35.80;96587.53;2070260;28;20201;-66
2022/07/27 12:32:19;;;;;;;5.03;1.35;;;;;;;26.82;35.42;96578.81;2069419;28;20222;-66
2022/07/27 12:33:29;;;;;;;2.92;1.50;;;;;;;26.24;36.44;96578.06;2069894;28;20194;-66
2022/07/27 12:34:32;;;;;;;2.83;1.20;;;;;;;25.88;36.92;96575.72;2069351;28;20760;-67
2022/07/27 12:35:45;;;;;;;2.97;1.23;;;;;;;25.96;36.77;96581.03;2069990;28;20205;-66
2022/07/27 12:36:47;;;;;;;3.33;1.25;;;;;;;26.31;36.39;96583.56;2069371;28;20190;-66
2022/07/27 12:38:06;;;;;;;3.38;1.40;;;;;;;27.14;34.94;96590.41;2069769;28;20206;-66
2022/07/27 12:39:07;;;;;;;3.75;1.10;;;;;;;27.94;33.97;96580.41;2069652;28;20244;-66
2022/07/27 12:40:16;;;;;;;2.00;1.10;;;;;;;28.00;33.51;96577.00;2069890;28;20563;-66
2022/07/27 12:41:29;;;;;;;3.08;1.30;;;;;;;28.42;32.74;96577.50;2070404;28;20198;-67
2022/07/27 12:42:34;;;;;;;6.32;1.42;;;;;;;28.79;31.97;96578.47;2069905;28;20218;-66
2022/07/27 12:43:35;;;;;;;6.00;1.35;;;;;;;28.28;33.54;96581.81;2069690;28;20197;-66
2022/07/27 12:44:43;;;;;;;3.35;1.10;;;;;;;28.33;33.35;96575.91;2070477;28;20195;-66
2022/07/27 12:45:47;;;;;;;9.38;1.27;;;;;;;28.02;33.16;96577.66;2069825;28;20241;-67
2022/07/27 12:46:52;;;;;;;1.77;1.00;;;;;;;28.02;33.57;96580.34;2069664;28;20194;-66
2022/07/27 12:48:07;;;;;;;3.53;1.20;;;;;;;27.38;34.48;96577.91;2070384;28;20191;-66
2022/07/27 12:49:15;;;;;;;3.25;1.13;;;;;;;26.75;35.42;96582.34;2069968;28;20654;-66
2022/07/27 12:50:26;;;;;;;1.80;1.08;;;;;;;26.55;36.31;96578.19;2069997;28;20661;-67
2022/07/27 12:51:28;;;;;;;3.45;1.00;;;;;;;26.87;35.55;96576.44;2070465;28;20553;-66
2022/07/27 12:52:30;;;;;;;7.18;1.23;;;;;;;26.34;36.46;96576.03;2068120;28;20218;-67
2022/07/27 12:53:34;;;;;;;2.55;1.00;;;;;;;26.61;36.00;96576.66;2069865;28;20213;-67
2022/07/27 12:54:37;;;;;;;2.70;1.00;;;;;;;27.72;34.37;96560.63;2069130;28;20197;-66
2022/07/27 12:55:40;;;;;;;3.20;1.10;;;;;;;28.40;33.44;96573.34;2070075;28;20256;-67
2022/07/27 12:56:41;;;;;;;14.10;1.00;;;;;;;28.50;33.05;96573.91;2070389;28;20849;-66
2022/07/27 12:57:44;;;;;;;4.07;1.27;;;;;;;28.34;32.71;96566.81;2068358;28;20218;-66
2022/07/27 12:59:03;;;;;;;3.33;1.00;;;;;;;29.00;31.94;96567.00;2070366;28;20195;-66
2022/07/27 13:00:08;;;;;;;16.92;1.13;;;;;;;28.65;32.54;96565.84;2070240;28;20197;-66
2022/07/27 13:01:10;;;;;;;2.83;1.65;;;;;;;27.98;33.28;96572.81;2069987;28;20209;-66
2022/07/27 13:02:12;;;;;;;4.85;1.00;;;;;;;27.84;34.10;96571.75;2068867;28;20245;-66